Washita, Oklahoma
Current Conditions -  °F | °C
As of 9:15 AM on Sunday 21 Dec 2014 (Local Time) from KCHK Reporting Station
Haze Haze  
Wind Chill: 40°   Ceiling: Unl
Heat Index: 46°   Visibility: 5mi
Dew Point: 45°   Wind: 14mph
Humidity: 93%   Direction: 170°S
Pressure: 29.98"   Gusts: 20mph
Location:  35.1°N, 98.34°W
Report Text: KCHK 211515Z AUTO 17012G17KT 5SM BR SCT009 08/07 A2998 RMK AO2
Loading
Personal Weather Stations






























Interactive Weather Map New forecast layout! Learn more

10-Day Weather Forecast

Advertisements
Track Severe Weather on mobile